Time;durP1;ratioP1;P1;durP2;ratioP2;P2;SDS_P1;SDS_P2;PMS_P1;PMS_P2;Temp;Humidity;BMP_temperature;BMP_pressure;BME280_temperature;BME280_humidity;BME280_pressure;Samples;Min_cycle;Max_cycle;Signal;HPM_P1;HPM_P2
2021/01/13 00:01:03;;;;;;;20.10;15.18;;;;;;;3.18;59.54;100050.78;4929174;28;98628;-71
2021/01/13 00:03:30;;;;;;;19.38;14.75;;;;;;;3.38;57.95;100057.19;4935834;28;98540;-71
2021/01/13 00:05:56;;;;;;;22.55;17.15;;;;;;;3.34;57.76;100057.28;4935638;28;96645;-71
2021/01/13 00:08:22;;;;;;;17.05;13.43;;;;;;;3.34;57.71;100052.13;4936303;28;96711;-71
2021/01/13 00:10:49;;;;;;;18.60;13.77;;;;;;;3.49;56.36;100054.34;4935371;28;98635;-71
2021/01/13 00:13:16;;;;;;;17.98;14.52;;;;;;;3.52;57.24;100063.75;4936059;28;97576;-71
2021/01/13 00:15:43;;;;;;;14.68;11.52;;;;;;;3.33;58.45;100071.06;4934541;28;96832;-71
2021/01/13 00:18:09;;;;;;;15.95;12.95;;;;;;;3.03;59.44;100070.84;4935933;28;96709;-71
2021/01/13 00:20:36;;;;;;;18.17;14.57;;;;;;;3.19;58.47;100075.66;4932987;28;98974;-71
2021/01/13 00:23:02;;;;;;;15.82;14.15;;;;;;;3.21;58.95;100076.50;4918050;28;98433;-71
2021/01/13 00:25:28;;;;;;;20.00;12.90;;;;;;;2.95;59.63;100077.06;4914340;28;97009;-71
2021/01/13 00:27:55;;;;;;;17.63;13.13;;;;;;;2.99;59.78;100056.38;4916250;28;97148;-71
2021/01/13 00:30:21;;;;;;;17.73;13.00;;;;;;;2.91;59.63;100065.13;4914201;28;97664;-71
2021/01/13 00:32:48;;;;;;;16.20;13.63;;;;;;;2.88;60.17;100069.47;4914580;28;98701;-71
2021/01/13 00:35:15;;;;;;;16.83;13.95;;;;;;;3.13;58.65;100051.75;4927508;28;96825;-71
2021/01/13 00:37:43;;;;;;;15.32;12.68;;;;;;;3.19;58.14;100061.06;4935679;28;96807;-71
2021/01/13 00:40:12;;;;;;;16.38;12.80;;;;;;;3.08;58.90;100053.56;4934690;28;97506;-71
2021/01/13 00:42:56;;;;;;;16.55;12.85;;;;;;;3.06;59.32;100045.03;4935766;28;98482;-71
2021/01/13 00:45:23;;;;;;;15.75;11.27;;;;;;;3.20;58.16;100036.19;4933475;28;96639;-70
2021/01/13 00:47:50;;;;;;;16.20;11.40;;;;;;;3.08;59.21;100032.97;4935794;28;96685;-70
2021/01/13 00:50:17;;;;;;;15.05;10.80;;;;;;;3.18;58.02;100032.75;4934171;28;98542;-70
2021/01/13 00:52:48;;;;;;;12.90;11.00;;;;;;;3.29;56.53;100036.78;4932803;28;98634;-70
2021/01/13 00:55:14;;;;;;;16.27;10.93;;;;;;;3.27;56.36;100027.41;4934727;28;96899;-71
2021/01/13 00:57:40;;;;;;;12.50;10.82;;;;;;;3.28;56.63;100023.94;4936069;28;97762;-70
2021/01/13 01:00:08;;;;;;;18.52;13.13;;;;;;;3.20;57.03;100038.75;4933425;28;98513;-71
2021/01/13 01:02:34;;;;;;;15.10;11.63;;;;;;;3.06;58.05;100032.16;4934788;28;98395;-69
2021/01/13 01:05:01;;;;;;;16.80;10.95;;;;;;;3.06;57.77;100039.91;4934032;28;96554;-69
2021/01/13 01:07:28;;;;;;;12.82;11.43;;;;;;;2.86;58.90;100040.31;4936292;28;96410;-70
2021/01/13 01:09:54;;;;;;;14.55;11.63;;;;;;;2.85;59.25;100043.78;4932747;28;98617;-69
2021/01/13 01:12:22;;;;;;;16.60;12.35;;;;;;;2.86;59.28;100042.06;4934533;28;98538;-69
2021/01/13 01:14:49;;;;;;;13.15;10.98;;;;;;;2.87;59.17;100033.44;4914543;28;96868;-72
2021/01/13 01:17:15;;;;;;;16.17;12.18;;;;;;;2.97;59.10;100034.09;4913973;28;96694;-69
2021/01/13 01:19:43;;;;;;;16.42;11.32;;;;;;;2.99;58.06;100032.34;4912982;28;98727;-69
2021/01/13 01:22:09;;;;;;;15.63;10.90;;;;;;;3.11;57.42;100030.34;4913471;28;98987;-69
2021/01/13 01:24:36;;;;;;;14.05;10.57;;;;;;;3.14;56.90;100027.69;4923028;28;97689;-70
2021/01/13 01:27:02;;;;;;;12.02;9.13;;;;;;;3.23;55.65;100016.31;4933462;28;96719;-70
2021/01/13 01:29:29;;;;;;;10.95;9.02;;;;;;;3.23;54.97;100011.16;4933884;28;98563;-71
2021/01/13 01:31:55;;;;;;;18.55;8.02;;;;;;;3.29;54.65;100015.31;4928276;28;98470;-71
2021/01/13 01:34:21;;;;;;;11.45;7.95;;;;;;;3.39;54.05;100016.81;4914071;28;96787;-71
2021/01/13 01:36:48;;;;;;;10.77;8.80;;;;;;;3.36;54.19;100016.88;4916733;28;98082;-70
2021/01/13 01:39:14;;;;;;;12.00;8.50;;;;;;;3.41;53.63;100015.91;4925083;28;98506;-70
2021/01/13 01:41:44;;;;;;;10.57;8.40;;;;;;;3.41;55.34;100017.63;4916926;28;98551;-69
2021/01/13 01:44:10;;;;;;;11.18;9.70;;;;;;;3.29;56.31;100033.34;4929681;28;96905;-70
2021/01/13 01:46:38;;;;;;;15.90;8.60;;;;;;;3.33;54.32;100027.25;4913600;28;97052;-70
2021/01/13 01:49:05;;;;;;;12.77;10.18;;;;;;;3.36;54.12;100032.34;4920590;28;98503;-71
2021/01/13 01:51:46;;;;;;;11.63;9.70;;;;;;;3.31;54.68;100029.03;4931405;28;98480;-69
2021/01/13 01:54:17;;;;;;;13.63;10.20;;;;;;;3.23;55.12;100029.19;4932756;28;96570;-69
2021/01/13 01:56:44;;;;;;;11.82;8.98;;;;;;;3.34;54.79;100019.47;4935079;28;96742;-68
2021/01/13 01:59:14;;;;;;;10.82;9.57;;;;;;;3.39;55.10;100011.66;4926882;28;99546;-68
2021/01/13 02:01:42;;;;;;;13.70;8.55;;;;;;;3.38;55.12;100020.25;4931931;28;98604;-70
2021/01/13 02:04:31;;;;;;;11.07;7.75;;;;;;;3.31;54.85;100013.56;4932629;28;96935;-68
2021/01/13 02:06:58;;;;;;;10.32;6.95;;;;;;;3.35;54.67;100017.75;4934129;28;96743;-69
2021/01/13 02:09:27;;;;;;;9.40;8.25;;;;;;;3.42;54.04;100006.44;4934893;28;98422;-69
2021/01/13 02:11:55;;;;;;;9.95;7.20;;;;;;;3.41;54.09;100010.75;4932085;28;98459;-69
2021/01/13 02:14:22;;;;;;;11.88;8.25;;;;;;;3.40;54.35;100009.03;4933982;28;96657;-69
2021/01/13 02:16:50;;;;;;;10.13;8.05;;;;;;;3.45;54.15;100010.66;4915739;28;96837;-69
2021/01/13 02:19:47;;;;;;;11.90;8.32;;;;;;;3.45;54.12;100008.91;4914526;28;98533;-69
2021/01/13 02:22:15;;;;;;;12.07;7.93;;;;;;;3.45;53.68;100014.06;4914412;28;98639;-69
2021/01/13 02:25:00;;;;;;;10.05;8.15;;;;;;;3.48;53.67;100006.28;4912319;28;96728;-69
2021/01/13 02:27:45;;;;;;;;;;;;;;;3.52;53.74;100007.91;4915540;28;96525;-69
2021/01/13 02:30:12;;;;;;;11.20;8.67;;;;;;;3.45;53.37;100016.66;4916849;28;98743;-69
2021/01/13 02:32:43;;;;;;;9.98;8.05;;;;;;;3.39;53.17;100016.81;4899804;28;98432;-69
2021/01/13 02:35:15;;;;;;;13.27;8.25;;;;;;;3.54;52.22;100013.84;4917330;28;96504;-69
2021/01/13 02:38:00;;;;;;;9.95;8.00;;;;;;;3.49;52.19;100013.13;4932196;28;96796;-69
2021/01/13 02:40:27;;;;;;;11.77;8.05;;;;;;;3.34;52.56;100016.06;4931548;28;98517;-70
2021/01/13 02:42:59;;;;;;;11.13;8.25;;;;;;;2.93;55.56;100015.31;4936812;28;98601;-70
2021/01/13 02:45:26;;;;;;;10.55;9.10;;;;;;;3.10;54.53;100014.94;4937538;28;96603;-70
2021/01/13 02:47:59;;;;;;;10.90;8.93;;;;;;;3.18;55.08;100013.00;4937173;28;97710;-71
2021/01/13 02:50:29;;;;;;;13.10;9.38;;;;;;;3.30;53.58;100014.44;4937124;28;98789;-71
2021/01/13 02:53:14;;;;;;;10.77;8.05;;;;;;;3.27;54.84;100017.09;4935050;28;98814;-71
2021/01/13 02:55:46;;;;;;;10.57;8.15;;;;;;;3.34;54.12;100018.63;4937177;28;96781;-71
2021/01/13 02:58:25;;;;;;;12.77;8.93;;;;;;;3.30;54.94;100017.88;4935575;28;97050;-71
2021/01/13 03:00:52;;;;;;;10.82;8.13;;;;;;;3.30;55.12;100022.16;4934908;28;98592;-70
2021/01/13 03:03:19;;;;;;;10.65;7.90;;;;;;;3.15;55.69;100013.94;4935013;28;99244;-69
2021/01/13 03:05:46;;;;;;;12.52;9.45;;;;;;;3.11;55.83;100016.63;4935411;28;96656;-69
2021/01/13 03:08:13;;;;;;;12.02;9.68;;;;;;;3.16;55.51;100014.78;4935475;28;97114;-70
2021/01/13 03:10:40;;;;;;;13.57;8.85;;;;;;;3.06;56.26;100029.59;4929910;28;97418;-69
2021/01/13 03:13:13;;;;;;;10.65;8.27;;;;;;;3.14;54.46;100024.25;4935321;28;98585;-69
2021/01/13 03:15:39;;;;;;;11.65;8.23;;;;;;;3.17;53.57;100029.34;4929581;28;97694;-69
2021/01/13 03:18:19;;;;;;;13.00;9.70;;;;;;;2.96;54.68;100028.09;4916113;28;96975;-70
2021/01/13 03:20:51;;;;;;;12.57;10.25;;;;;;;2.88;54.09;100025.72;4915227;28;98707;-69
2021/01/13 03:23:23;;;;;;;12.77;9.27;;;;;;;2.93;54.13;100029.88;4915898;28;98558;-70
2021/01/13 03:25:59;;;;;;;15.25;10.73;;;;;;;2.98;54.53;100028.91;4916491;28;97108;-69
2021/01/13 03:28:47;;;;;;;12.70;10.77;;;;;;;2.96;54.85;100033.25;4918222;28;96564;-69
2021/01/13 03:31:16;;;;;;;14.02;10.15;;;;;;;2.96;54.36;100029.84;4931685;28;98527;-70
2021/01/13 03:33:49;;;;;;;13.55;10.77;;;;;;;2.90;55.96;100033.41;4934457;28;98434;-70
2021/01/13 03:36:21;;;;;;;13.52;9.77;;;;;;;2.99;54.63;100043.50;4934683;28;97017;-71
2021/01/13 03:39:06;;;;;;;11.75;9.48;;;;;;;2.89;54.47;100039.44;4930575;28;96648;-71
2021/01/13 03:41:55;;;;;;;15.40;11.32;;;;;;;2.89;55.35;100039.44;4915071;28;98847;-71
2021/01/13 03:44:27;;;;;;;14.10;10.23;;;;;;;2.95;54.65;100041.88;4920810;28;98535;-71
2021/01/13 03:46:54;;;;;;;13.07;10.07;;;;;;;2.86;54.93;100040.31;4924739;28;96668;-71
2021/01/13 03:49:26;;;;;;;14.00;10.45;;;;;;;2.88;55.39;100043.72;4915643;28;97081;-71
2021/01/13 03:52:05;;;;;;;14.15;9.70;;;;;;;2.98;55.49;100043.50;4922457;28;98604;-71
2021/01/13 03:54:35;;;;;;;12.82;10.55;;;;;;;2.95;55.80;100031.56;4933393;28;98485;-72
2021/01/13 03:57:05;;;;;;;13.82;10.95;;;;;;;2.99;54.70;100030.63;4925093;28;96672;-71
2021/01/13 03:59:45;;;;;;;13.50;9.65;;;;;;;3.11;53.77;100022.59;4932307;28;97110;-70
2021/01/13 04:02:16;;;;;;;14.70;10.25;;;;;;;3.08;54.42;100025.25;4933999;28;98412;-70
2021/01/13 04:05:07;;;;;;;17.55;10.10;;;;;;;2.99;54.28;100028.06;4932937;28;98312;-69
2021/01/13 04:07:38;;;;;;;15.75;11.95;;;;;;;3.05;54.91;100037.38;4934644;28;96972;-69
2021/01/13 04:10:06;;;;;;;13.35;10.68;;;;;;;2.99;55.04;100035.78;4933598;28;96759;-69
2021/01/13 04:12:33;;;;;;;13.05;10.23;;;;;;;3.00;54.68;100052.91;4935559;28;98574;-70
2021/01/13 04:14:59;;;;;;;16.55;11.25;;;;;;;2.65;56.15;100063.94;4915670;28;98436;-71
2021/01/13 04:17:26;;;;;;;18.35;13.30;;;;;;;2.75;55.90;100068.03;4934763;28;97209;-71
2021/01/13 04:19:53;;;;;;;15.82;12.88;;;;;;;2.61;56.73;100057.19;4933635;28;97182;-71
2021/01/13 04:22:21;;;;;;;14.35;11.07;;;;;;;2.53;57.26;100059.91;4934445;28;98777;-69
2021/01/13 04:24:48;;;;;;;16.42;10.93;;;;;;;2.69;56.86;100064.75;4933588;28;98431;-68
2021/01/13 04:27:18;;;;;;;15.60;11.02;;;;;;;2.71;56.70;100065.53;4934574;28;96913;-70
2021/01/13 04:29:45;;;;;;;14.20;9.82;;;;;;;2.65;56.48;100063.94;4927181;28;99112;-70
2021/01/13 04:32:11;;;;;;;14.63;11.35;;;;;;;2.66;56.53;100072.50;4932675;28;98608;-70
2021/01/13 04:34:39;;;;;;;14.27;11.57;;;;;;;2.58;57.01;100068.38;4933461;28;98429;-71
2021/01/13 04:37:06;;;;;;;13.27;10.18;;;;;;;2.57;57.00;100071.00;4934002;28;96623;-72
2021/01/13 04:39:34;;;;;;;16.67;11.23;;;;;;;2.48;56.56;100077.16;4932600;28;97446;-72
2021/01/13 04:42:03;;;;;;;15.75;10.43;;;;;;;2.60;56.30;100076.06;4916987;28;98703;-72
2021/01/13 04:44:31;;;;;;;14.50;10.32;;;;;;;2.49;56.07;100071.13;4921111;28;98521;-71
2021/01/13 04:47:07;;;;;;;16.85;11.38;;;;;;;2.46;56.64;100081.50;4927373;28;96903;-71
2021/01/13 04:49:34;;;;;;;13.80;10.68;;;;;;;2.51;56.63;100071.13;4932190;28;99238;-72
2021/01/13 04:52:06;;;;;;;16.40;11.52;;;;;;;2.50;56.44;100075.38;4933410;28;98500;-72
2021/01/13 04:54:34;;;;;;;17.58;12.38;;;;;;;2.18;57.63;100082.88;4932438;28;98464;-72
2021/01/13 04:57:17;;;;;;;14.75;12.20;;;;;;;2.22;58.06;100077.66;4916641;28;96839;-72
2021/01/13 05:00:11;;;;;;;18.35;11.38;;;;;;;2.16;59.00;100076.94;4918479;28;96652;-70
2021/01/13 05:02:59;;;;;;;16.88;11.18;;;;;;;2.17;59.19;100071.75;4929392;28;98494;-70
2021/01/13 05:05:29;;;;;;;17.90;12.98;;;;;;;2.29;58.69;100073.22;4932249;28;98475;-71
2021/01/13 05:08:13;;;;;;;15.73;11.02;;;;;;;2.13;58.96;100087.25;4933400;28;97103;-70
2021/01/13 05:10:41;;;;;;;15.93;10.98;;;;;;;2.15;58.95;100083.78;4921558;28;96548;-70
2021/01/13 05:13:12;;;;;;;18.10;14.68;;;;;;;2.23;59.49;100078.50;4914425;28;98481;-70
2021/01/13 05:15:38;;;;;;;14.95;11.23;;;;;;;2.22;58.82;100081.94;4914384;28;98657;-71
2021/01/13 05:18:11;;;;;;;17.80;12.55;;;;;;;2.34;57.33;100081.72;4896947;28;97076;-70
2021/01/13 05:20:38;;;;;;;19.60;12.00;;;;;;;2.34;58.00;100099.72;4913688;28;96645;-71
2021/01/13 05:23:06;;;;;;;19.27;12.63;;;;;;;2.20;58.89;100109.44;4933098;28;98630;-71
2021/01/13 05:25:37;;;;;;;21.42;15.30;;;;;;;2.08;59.54;100108.78;4933232;28;98664;-71
2021/01/13 05:28:17;;;;;;;18.98;13.80;;;;;;;2.14;58.82;100119.84;4933838;28;96781;-71
2021/01/13 05:30:54;;;;;;;24.42;15.25;;;;;;;2.21;58.87;100119.69;4932828;28;96959;-71
2021/01/13 05:33:21;;;;;;;18.52;13.60;;;;;;;2.23;58.62;100132.50;4913610;28;98453;-71
2021/01/13 05:35:55;;;;;;;17.65;13.50;;;;;;;2.04;59.56;100132.84;4913578;28;98555;-71
2021/01/13 05:38:43;;;;;;;22.50;12.77;;;;;;;2.12;58.42;100137.84;4933661;28;96817;-71
2021/01/13 05:41:12;;;;;;;20.52;14.07;;;;;;;2.26;58.36;100143.59;4932139;28;96902;-73
2021/01/13 05:43:45;;;;;;;21.23;13.77;;;;;;;2.17;58.29;100138.59;4932547;28;98861;-73
2021/01/13 05:46:12;;;;;;;25.38;14.63;;;;;;;2.17;58.06;100146.31;4930287;28;99488;-73
2021/01/13 05:48:41;;;;;;;22.05;13.63;;;;;;;2.31;57.42;100153.81;4912864;28;96801;-72
2021/01/13 05:51:08;;;;;;;19.40;14.32;;;;;;;2.07;58.09;100157.63;4914826;28;96811;-72
2021/01/13 05:53:35;;;;;;;18.25;13.43;;;;;;;2.25;57.26;100154.78;4933012;28;98645;-73
2021/01/13 05:56:02;;;;;;;18.83;12.68;;;;;;;2.25;57.01;100153.94;4933166;28;98552;-73
2021/01/13 05:58:29;;;;;;;19.65;14.68;;;;;;;2.19;57.73;100157.44;4932138;28;96566;-70
2021/01/13 06:00:57;;;;;;;16.95;12.50;;;;;;;2.43;56.36;100161.28;4932605;28;96717;-69
2021/01/13 06:03:25;;;;;;;18.30;13.40;;;;;;;2.40;56.95;100157.91;4930187;28;97624;-68
2021/01/13 06:05:53;;;;;;;20.88;14.02;;;;;;;2.10;58.65;100153.31;4926947;28;98372;-68
2021/01/13 06:08:31;;;;;;;19.38;15.73;;;;;;;2.05;59.35;100160.25;4913586;28;96534;-70
2021/01/13 06:11:02;;;;;;;17.85;13.13;;;;;;;2.06;59.23;100159.38;4919029;28;96784;-71
2021/01/13 06:13:31;;;;;;;24.00;14.55;;;;;;;2.18;58.61;100166.00;4931812;28;98596;-73
2021/01/13 06:15:59;;;;;;;17.92;13.18;;;;;;;2.19;59.13;100172.88;4931625;28;98540;-73
2021/01/13 06:18:26;;;;;;;20.67;13.23;;;;;;;2.09;59.86;100176.47;4931423;28;97953;-73
2021/01/13 06:20:57;;;;;;;18.35;14.20;;;;;;;2.18;59.70;100172.88;4931249;28;97960;-73
2021/01/13 06:23:28;;;;;;;21.05;15.32;;;;;;;2.33;58.69;100162.34;4931483;28;98729;-71
2021/01/13 06:25:55;;;;;;;19.23;13.65;;;;;;;2.24;59.21;100171.09;4931666;28;99074;-71
2021/01/13 06:28:33;;;;;;;21.50;16.55;;;;;;;2.23;59.09;100178.81;4932423;28;96801;-72
2021/01/13 06:31:06;;;;;;;24.92;18.75;;;;;;;2.30;58.83;100193.28;4912216;28;96741;-71
2021/01/13 06:33:35;;;;;;;26.65;19.40;;;;;;;2.43;57.42;100187.03;4912442;28;98583;-73
2021/01/13 06:36:13;;;;;;;25.40;18.67;;;;;;;2.48;57.70;100194.66;4920871;28;98656;-73
2021/01/13 06:38:46;;;;;;;25.65;17.98;;;;;;;2.41;58.30;100193.94;4923005;28;96720;-72
2021/01/13 06:41:12;;;;;;;25.75;20.17;;;;;;;2.39;58.05;100198.25;4921098;28;96904;-73
2021/01/13 06:43:39;;;;;;;30.33;20.50;;;;;;;2.50;57.27;100201.47;4907679;28;100165;-73
2021/01/13 06:46:17;;;;;;;28.50;21.35;;;;;;;2.70;56.64;100202.84;4908532;28;98488;-73
2021/01/13 06:48:43;;;;;;;31.42;22.92;;;;;;;2.70;56.88;100211.41;4922680;28;96859;-73
2021/01/13 06:51:11;;;;;;;49.50;22.00;;;;;;;2.79;55.67;100208.69;4919891;28;97060;-72
2021/01/13 06:53:37;;;;;;;26.17;21.33;;;;;;;2.81;55.63;100214.63;4907027;28;100577;-69
2021/01/13 06:56:09;;;;;;;30.27;22.33;;;;;;;2.85;55.31;100218.00;4932015;28;98635;-73
2021/01/13 06:58:37;;;;;;;32.92;23.02;;;;;;;2.82;55.84;100221.50;4932933;28;97543;-74
2021/01/13 07:01:04;;;;;;;34.03;25.83;;;;;;;2.69;56.48;100221.75;4930351;28;97012;-73
2021/01/13 07:03:32;;;;;;;31.70;24.58;;;;;;;2.80;55.97;100223.25;4928751;28;98654;-74
2021/01/13 07:06:02;;;;;;;30.52;23.02;;;;;;;2.58;58.65;100225.34;4924306;28;98653;-74
2021/01/13 07:08:28;;;;;;;31.88;24.13;;;;;;;2.61;58.51;100240.75;4926175;28;97050;-76
2021/01/13 07:11:08;;;;;;;26.08;20.98;;;;;;;2.59;58.43;100234.78;4923076;28;96564;-75
2021/01/13 07:13:41;;;;;;;31.15;23.83;;;;;;;2.58;58.46;100237.38;4927473;28;98620;-75
2021/01/13 07:16:08;;;;;;;30.75;25.17;;;;;;;2.40;60.14;100235.09;4930853;28;98612;-68
2021/01/13 07:18:35;;;;;;;34.13;22.10;;;;;;;2.49;59.21;100232.38;4927864;28;96521;-67
2021/01/13 07:21:09;;;;;;;31.55;23.17;;;;;;;2.59;58.74;100239.06;4935682;28;96662;-68
2021/01/13 07:23:42;;;;;;;30.70;23.55;;;;;;;2.51;59.70;100244.38;4926559;28;98699;-67
2021/01/13 07:26:09;;;;;;;34.95;24.75;;;;;;;2.87;57.08;100254.88;4930269;28;98595;-67
2021/01/13 07:28:35;;;;;;;33.40;26.17;;;;;;;2.98;57.52;100252.94;4935034;28;96565;-73
2021/01/13 07:31:02;;;;;;;28.45;23.33;;;;;;;3.08;57.33;100251.88;4936402;28;96632;-75
2021/01/13 07:33:49;;;;;;;37.28;27.75;;;;;;;3.14;56.64;100256.94;4936502;28;98682;-75
2021/01/13 07:36:18;;;;;;;29.15;24.95;;;;;;;3.26;56.63;100266.16;4935073;28;98473;-77
2021/01/13 07:38:44;;;;;;;31.98;25.08;;;;;;;3.39;56.60;100259.00;4936719;28;96545;-76
2021/01/13 07:41:11;;;;;;;34.47;25.10;;;;;;;3.73;56.33;100247.97;4918757;28;96945;-76
2021/01/13 07:44:02;;;;;;;36.65;25.77;;;;;;;4.22;55.25;100250.31;4915994;28;98647;-76
2021/01/13 07:46:32;;;;;;;35.92;25.17;;;;;;;4.70;54.81;100253.41;4936111;28;98471;-75
2021/01/13 07:49:20;;;;;;;31.85;24.45;;;;;;;5.12;52.23;100253.16;4936672;28;96845;-76
2021/01/13 07:51:51;;;;;;;31.40;25.42;;;;;;;5.48;51.25;100240.91;4936261;28;96587;-76
2021/01/13 07:54:34;;;;;;;33.67;27.02;;;;;;;5.87;50.89;100255.31;4935713;28;98291;-73
2021/01/13 07:57:02;;;;;;;29.27;23.30;;;;;;;6.16;49.99;100247.50;4931788;28;98654;-75
2021/01/13 07:59:42;;;;;;;34.35;25.73;;;;;;;6.53;47.82;100256.66;4936059;28;96874;-76
2021/01/13 08:02:36;;;;;;;36.30;26.50;;;;;;;6.84;47.47;100261.66;4934043;28;96823;-76
2021/01/13 08:05:23;;;;;;;34.05;25.48;;;;;;;6.99;45.96;100253.34;4934482;28;98785;-76
2021/01/13 08:08:09;;;;;;;30.60;24.27;;;;;;;7.28;45.85;100260.09;4936356;28;98918;-75
2021/01/13 08:10:40;;;;;;;34.67;25.05;;;;;;;7.46;44.68;100249.97;4935418;28;96677;-76
2021/01/13 08:13:31;;;;;;;34.55;26.23;;;;;;;7.71;44.53;100268.88;4936293;28;96630;-76
2021/01/13 08:16:28;;;;;;;33.53;24.50;;;;;;;7.86;43.70;100263.09;4922923;28;98573;-76
2021/01/13 08:19:32;;;;;;;27.42;22.77;;;;;;;7.89;43.16;100251.78;4931265;28;98761;-74
2021/01/13 08:22:05;;;;;;;31.48;24.67;;;;;;;8.08;43.49;100257.06;4931384;28;96624;-78
2021/01/13 08:24:38;;;;;;;27.65;22.48;;;;;;;8.26;42.16;100260.72;4917821;28;96824;-77
2021/01/13 08:27:05;;;;;;;31.13;22.85;;;;;;;8.31;42.72;100267.41;4935469;28;98707;-77
2021/01/13 08:29:34;;;;;;;34.08;23.80;;;;;;;8.41;42.55;100270.47;4935186;28;97501;-76
2021/01/13 08:32:07;;;;;;;26.23;21.75;;;;;;;8.48;41.42;100277.13;4934913;28;96594;-75
2021/01/13 08:34:41;;;;;;;34.53;25.55;;;;;;;8.41;41.64;100273.09;4935640;28;96680;-75
2021/01/13 08:37:08;;;;;;;30.10;24.30;;;;;;;8.40;41.77;100274.00;4935343;28;98522;-75
2021/01/13 08:39:36;;;;;;;32.65;24.73;;;;;;;8.20;42.19;100277.34;4929316;28;98531;-75
2021/01/13 08:42:25;;;;;;;47.20;25.98;;;;;;;8.18;42.18;100278.31;4934563;28;96857;-75
2021/01/13 08:44:54;;;;;;;31.73;24.10;;;;;;;8.09;42.88;100280.38;4933504;28;96902;-76
2021/01/13 08:47:24;;;;;;;30.70;23.08;;;;;;;7.97;42.87;100291.25;4931927;28;98652;-76
2021/01/13 08:49:50;;;;;;;28.52;23.30;;;;;;;7.64;43.57;100293.38;4933287;28;98426;-75
2021/01/13 08:52:24;;;;;;;28.30;21.98;;;;;;;7.52;43.89;100301.59;4933150;28;97021;-74
2021/01/13 08:54:56;;;;;;;30.55;23.27;;;;;;;7.35;43.72;100302.22;4932823;28;96666;-75
2021/01/13 08:57:24;;;;;;;30.92;23.80;;;;;;;7.07;45.17;100297.13;4932633;28;98611;-75
2021/01/13 08:59:51;;;;;;;30.63;23.08;;;;;;;6.63;45.62;100298.66;4926470;28;98603;-74
2021/01/13 09:02:22;;;;;;;29.35;21.42;;;;;;;6.47;46.29;100298.31;4934406;28;96611;-74
2021/01/13 09:04:58;;;;;;;28.45;21.48;;;;;;;6.15;46.60;100297.56;4935502;28;97028;-73
2021/01/13 09:07:25;;;;;;;34.67;24.05;;;;;;;6.09;47.65;100294.34;4935230;28;97971;-75
2021/01/13 09:10:05;;;;;;;33.53;25.65;;;;;;;6.15;47.55;100288.97;4928210;28;98584;-76
2021/01/13 09:12:43;;;;;;;34.92;23.70;;;;;;;5.91;47.72;100293.09;4934973;28;96592;-74
2021/01/13 09:15:28;;;;;;;28.20;23.17;;;;;;;5.85;48.19;100296.72;4935004;28;96600;-74
2021/01/13 09:17:58;;;;;;;28.23;20.73;;;;;;;5.78;48.40;100293.47;4935305;28;97817;-75
2021/01/13 09:20:27;;;;;;;29.10;22.25;;;;;;;5.58;48.49;100293.19;4934647;28;98466;-75
2021/01/13 09:22:58;;;;;;;30.10;22.35;;;;;;;5.69;48.84;100301.50;4934215;28;96563;-75
2021/01/13 09:25:26;;;;;;;31.50;20.83;;;;;;;5.66;48.89;100311.09;4933638;28;96748;-76
2021/01/13 09:28:03;;;;;;;28.77;22.73;;;;;;;5.66;48.62;100319.72;4934449;28;98546;-76
2021/01/13 09:30:37;;;;;;;29.25;23.48;;;;;;;5.66;48.86;100306.78;4934181;28;98611;-76
2021/01/13 09:33:12;;;;;;;33.08;22.95;;;;;;;5.51;49.43;100302.03;4929292;28;96588;-74
2021/01/13 09:35:40;;;;;;;33.25;24.38;;;;;;;5.42;50.26;100310.03;4933038;28;96947;-75
2021/01/13 09:38:08;;;;;;;33.53;25.17;;;;;;;5.55;49.58;100311.41;4932009;28;99094;-74
2021/01/13 09:40:56;;;;;;;32.95;24.45;;;;;;;5.54;49.86;100307.13;4933795;28;98183;-75
2021/01/13 09:43:26;;;;;;;34.83;25.10;;;;;;;5.52;50.29;100308.91;4915233;28;96529;-75
2021/01/13 09:45:54;;;;;;;34.45;24.23;;;;;;;5.56;50.81;100309.66;4919824;28;97053;-73
2021/01/13 09:48:22;;;;;;;37.85;24.55;;;;;;;5.43;50.63;100319.50;4932466;28;98539;-66
2021/01/13 09:51:02;;;;;;;36.53;24.85;;;;;;;5.52;50.88;100324.41;4932656;28;98568;-67
2021/01/13 09:53:34;;;;;;;43.97;27.13;;;;;;;5.72;50.35;100314.34;4933932;28;96602;-68
2021/01/13 09:56:02;;;;;;;34.35;26.80;;;;;;;5.65;51.19;100327.53;4935203;28;97103;-67
2021/01/13 09:58:40;;;;;;;33.30;24.60;;;;;;;5.81;51.05;100325.34;4932746;28;98431;-68
2021/01/13 10:01:17;;;;;;;31.58;23.38;;;;;;;5.84;51.09;100325.22;4933346;28;98669;-68
2021/01/13 10:03:46;;;;;;;32.17;22.02;;;;;;;5.78;50.18;100321.09;4930779;28;96681;-68
2021/01/13 10:06:26;;;;;;;37.22;24.65;;;;;;;5.92;51.08;100328.50;4934586;28;96660;-68
2021/01/13 10:09:15;;;;;;;37.33;25.33;;;;;;;5.83;51.94;100329.56;4931240;28;98498;-68
2021/01/13 10:11:42;;;;;;;45.15;26.65;;;;;;;5.85;51.41;100327.75;4933464;28;98519;-67
2021/01/13 10:14:11;;;;;;;38.45;27.08;;;;;;;5.97;51.49;100327.47;4932197;28;96895;-66
2021/01/13 10:16:44;;;;;;;46.28;26.52;;;;;;;5.92;51.95;100323.31;4934324;28;96663;-67
2021/01/13 10:19:12;;;;;;;39.03;27.27;;;;;;;5.86;51.91;100321.72;4929941;28;100924;-68
2021/01/13 10:21:39;;;;;;;38.20;25.73;;;;;;;6.00;51.28;100324.75;4932562;28;98783;-68
2021/01/13 10:24:13;;;;;;;35.22;26.90;;;;;;;6.05;51.18;100316.88;4924646;28;96686;-69
2021/01/13 10:26:40;;;;;;;37.10;28.75;;;;;;;6.11;50.57;100315.81;4914557;28;96633;-68
2021/01/13 10:29:07;;;;;;;39.15;26.80;;;;;;;6.13;50.36;100324.41;4911828;28;98649;-68
2021/01/13 10:31:37;;;;;;;43.45;27.00;;;;;;;6.11;49.83;100308.91;4913360;28;98764;-68
2021/01/13 10:34:04;;;;;;;37.40;28.38;;;;;;;6.08;50.54;100319.38;4913574;28;96446;-68
2021/01/13 10:36:33;;;;;;;39.45;27.75;;;;;;;6.02;50.63;100310.06;4913924;28;96635;-68
2021/01/13 10:39:04;;;;;;;34.97;26.65;;;;;;;6.18;50.61;100318.19;4917259;28;97550;-68
2021/01/13 10:41:39;;;;;;;43.00;28.17;;;;;;;6.01;50.42;100323.00;4931631;28;98505;-68
2021/01/13 10:44:15;;;;;;;41.15;26.88;;;;;;;6.13;50.57;100322.66;4928462;28;96792;-68
2021/01/13 10:46:44;;;;;;;48.70;32.47;;;;;;;5.89;51.60;100319.03;4932920;28;96896;-67
2021/01/13 10:49:23;;;;;;;40.40;27.98;;;;;;;6.13;50.66;100312.31;4934229;28;98564;-66
2021/01/13 10:51:51;;;;;;;34.88;26.17;;;;;;;6.29;50.55;100321.31;4936425;28;98605;-67
2021/01/13 10:54:20;;;;;;;41.60;27.10;;;;;;;6.24;50.88;100315.41;4934262;28;96661;-67
2021/01/13 10:56:51;;;;;;;40.88;29.35;;;;;;;6.21;51.02;100318.09;4936479;28;96954;-66
2021/01/13 10:59:17;;;;;;;35.72;26.00;;;;;;;6.27;50.99;100317.03;4935091;28;98690;-67
2021/01/13 11:01:49;;;;;;;36.33;26.67;;;;;;;6.29;50.64;100323.03;4935152;28;98484;-67
2021/01/13 11:04:48;;;;;;;36.08;25.45;;;;;;;6.39;50.66;100310.63;4920793;28;96845;-67
2021/01/13 11:07:16;;;;;;;35.80;24.05;;;;;;;6.40;50.76;100305.44;4894281;28;96940;-66
2021/01/13 11:09:43;;;;;;;45.90;29.85;;;;;;;6.38;50.99;100314.13;4915654;28;98610;-67
2021/01/13 11:12:17;;;;;;;36.97;28.30;;;;;;;6.33;50.88;100300.47;4915230;28;98502;-65
2021/01/13 11:14:46;;;;;;;40.40;29.02;;;;;;;6.41;50.95;100301.94;4932437;28;96846;-67
2021/01/13 11:17:14;;;;;;;37.25;29.65;;;;;;;6.30;51.35;100298.84;4917853;28;96747;-67
2021/01/13 11:19:43;;;;;;;39.35;27.95;;;;;;;6.35;50.96;100291.78;4915685;28;98895;-67
2021/01/13 11:22:10;;;;;;;40.63;28.02;;;;;;;6.47;50.83;100299.16;4925572;28;98871;-67
2021/01/13 11:24:42;;;;;;;43.17;29.92;;;;;;;6.48;50.66;100298.25;4935886;28;96541;-67
2021/01/13 11:27:13;;;;;;;34.72;26.27;;;;;;;6.39;50.48;100300.28;4925175;28;97446;-67
2021/01/13 11:29:41;;;;;;;37.05;28.02;;;;;;;6.39;50.95;100301.16;4914492;28;98488;-67
2021/01/13 11:32:12;;;;;;;44.00;27.13;;;;;;;6.45;50.68;100307.88;4916373;28;97343;-67
2021/01/13 11:34:40;;;;;;;39.85;28.77;;;;;;;6.47;50.90;100301.75;4914361;28;96518;-67
2021/01/13 11:37:32;;;;;;;37.80;26.20;;;;;;;6.55;51.15;100296.28;4916858;28;96736;-67
2021/01/13 11:40:23;;;;;;;39.47;26.80;;;;;;;6.56;51.58;100292.84;4915066;28;98375;-67